VKG293 LCLK-EKBI
Flight info
| Callsign | VKG293 |
|---|---|
| Flight time | N/A |
| Altitude | 32000 |
| Route | PHA M31 GENOS DCT PEDER DCT EVENO DCT BENEM UN127 ULKAN DCT RIKSO UN128 LMO DCT EVIVI DCT EDIKA DCT BAVGA DCT OKANA DCT NII DCT XENIT DCT BGD DCT TONDO DCT TEKNO DCT BEGLA DCT WGM DCT LOKVU DCT LALUK DCT MILGU DCT SOGMA M748 BUMIL DCT PIZID M105 AMRAK DCT LOKSA |
| Aircraft | A321/M-SDE2E3FGHIJ1RWXYZ/LB2 |
Departure
| Time | 2026-05-04 11:05 |
|---|---|
| Airport | Larnaca International Airport (LCLK) |
Arrival
| Time | N/A |
|---|---|
| Airport | Billund Airport (EKBI) |
| Time | Latitude | Longitude | Altitude | Speed | Heading |
|---|---|---|---|---|---|
| 2026-05-04 09:37 | 34.86880 | 33.60959 | 21 ft | 0 kts | 44° |
| 2026-05-04 10:54 | 34.86836 | 33.60844 | 21 ft | 0 kts | 135° |
| 2026-05-04 10:57 | 34.86817 | 33.60867 | 21 ft | 8 kts | 135° |
| 2026-05-04 10:58 | 34.86776 | 33.60915 | 20 ft | 7 kts | 135° |
| 2026-05-04 10:58 | 34.86743 | 33.60956 | 20 ft | 7 kts | 135° |
| 2026-05-04 10:58 | 34.86700 | 33.61029 | 21 ft | 13 kts | 101° |
| 2026-05-04 10:58 | 34.86745 | 33.61123 | 20 ft | 15 kts | 46° |
| 2026-05-04 10:59 | 34.86835 | 33.61232 | 17 ft | 20 kts | 45° |
| 2026-05-04 10:59 | 34.86929 | 33.61347 | 17 ft | 18 kts | 45° |
| 2026-05-04 10:59 | 34.87017 | 33.61455 | 16 ft | 18 kts | 45° |
| 2026-05-04 10:59 | 34.87105 | 33.61562 | 18 ft | 19 kts | 45° |
| 2026-05-04 11:00 | 34.87221 | 33.61704 | 18 ft | 28 kts | 45° |
| 2026-05-04 11:01 | 34.87712 | 33.62445 | 18 ft | 23 kts | 45° |
| 2026-05-04 11:02 | 34.87788 | 33.62537 | 18 ft | 23 kts | 45° |
| 2026-05-04 11:02 | 34.87916 | 33.62693 | 21 ft | 29 kts | 45° |
| 2026-05-04 11:05 | 34.85039 | 33.59453 | 1441 ft | 157 kts | 232° |
| 2026-05-04 11:06 | 34.84286 | 33.58457 | 1796 ft | 168 kts | 232° |
| 2026-05-04 11:06 | 34.83442 | 33.57343 | 1923 ft | 189 kts | 232° |
| 2026-05-04 11:06 | 34.82492 | 33.56097 | 2133 ft | 213 kts | 232° |
| 2026-05-04 11:06 | 34.81423 | 33.54702 | 2530 ft | 238 kts | 231° |
| 2026-05-04 11:08 | 34.73073 | 33.44045 | 7824 ft | 253 kts | 231° |
| 2026-05-04 11:10 | 34.68142 | 33.30712 | 11537 ft | 294 kts | 273° |
| 2026-05-04 11:12 | 34.68917 | 33.11804 | 15160 ft | 330 kts | 272° |
| 2026-05-04 11:12 | 34.68943 | 33.09000 | 15715 ft | 332 kts | 271° |
| 2026-05-04 11:12 | 34.68931 | 33.06180 | 16250 ft | 335 kts | 270° |
| 2026-05-04 11:12 | 34.69105 | 33.03355 | 16753 ft | 337 kts | 283° |
| 2026-05-04 11:13 | 34.69729 | 33.00596 | 17267 ft | 339 kts | 285° |
| 2026-05-04 11:13 | 34.70375 | 32.97829 | 17785 ft | 342 kts | 285° |
| 2026-05-04 11:13 | 34.71027 | 32.95040 | 18279 ft | 344 kts | 285° |
| 2026-05-04 11:13 | 34.71677 | 32.92259 | 18719 ft | 347 kts | 285° |
| 2026-05-04 11:14 | 34.72338 | 32.89429 | 19141 ft | 349 kts | 285° |
| 2026-05-04 11:14 | 34.73008 | 32.86565 | 19522 ft | 353 kts | 285° |
| 2026-05-04 11:14 | 34.73684 | 32.83677 | 19901 ft | 357 kts | 285° |
| 2026-05-04 11:16 | 34.78532 | 32.62809 | 22734 ft | 375 kts | 286° |
| 2026-05-04 11:16 | 34.79240 | 32.59733 | 23134 ft | 378 kts | 286° |
| 2026-05-04 11:16 | 34.79949 | 32.56647 | 23519 ft | 380 kts | 286° |
| 2026-05-04 11:17 | 34.80664 | 32.53538 | 23847 ft | 382 kts | 286° |
| 2026-05-04 11:17 | 34.81383 | 32.50416 | 24173 ft | 383 kts | 286° |
| 2026-05-04 11:19 | 34.86448 | 32.28250 | 26425 ft | 395 kts | 285° |
| 2026-05-04 11:19 | 34.87185 | 32.25019 | 26728 ft | 397 kts | 285° |
| 2026-05-04 11:19 | 34.87927 | 32.21766 | 27027 ft | 399 kts | 285° |
| 2026-05-04 11:19 | 34.88670 | 32.18507 | 27328 ft | 400 kts | 285° |
| 2026-05-04 11:20 | 34.89415 | 32.15226 | 27621 ft | 402 kts | 285° |
| 2026-05-04 11:20 | 34.90161 | 32.11934 | 27888 ft | 403 kts | 285° |
| 2026-05-04 11:20 | 34.90908 | 32.08626 | 28161 ft | 405 kts | 285° |
| 2026-05-04 11:20 | 34.91650 | 32.05350 | 28411 ft | 407 kts | 285° |
| 2026-05-04 11:22 | 34.96955 | 31.81730 | 30300 ft | 414 kts | 285° |
| 2026-05-04 11:22 | 34.97709 | 31.78342 | 30578 ft | 413 kts | 285° |
| 2026-05-04 11:23 | 34.98467 | 31.74944 | 30799 ft | 414 kts | 285° |
| 2026-05-04 11:23 | 34.99223 | 31.71548 | 31055 ft | 414 kts | 285° |
| 2026-05-04 11:24 | 35.03719 | 31.51282 | 32770 ft | 410 kts | 284° |
| 2026-05-04 11:25 | 35.04450 | 31.47962 | 33011 ft | 410 kts | 284° |
| 2026-05-04 11:25 | 35.05189 | 31.44603 | 33270 ft | 410 kts | 284° |
| 2026-05-04 11:25 | 35.05931 | 31.41232 | 33540 ft | 409 kts | 284° |
| 2026-05-04 11:26 | 35.07409 | 31.34523 | 33893 ft | 406 kts | 284° |
| 2026-05-04 11:27 | 35.12424 | 31.11419 | 33901 ft | 403 kts | 284° |
| 2026-05-04 11:28 | 35.13854 | 31.04791 | 33903 ft | 403 kts | 284° |
| 2026-05-04 11:28 | 35.15291 | 30.98158 | 33903 ft | 403 kts | 284° |
| 2026-05-04 11:29 | 35.16711 | 30.91554 | 33898 ft | 403 kts | 284° |
| 2026-05-04 11:29 | 35.18960 | 30.85303 | 33890 ft | 404 kts | 303° |
| 2026-05-04 11:33 | 35.45924 | 30.49641 | 33889 ft | 409 kts | 310° |
| 2026-05-04 11:33 | 35.49810 | 30.44520 | 33900 ft | 410 kts | 310° |
| 2026-05-04 11:34 | 35.53699 | 30.39381 | 33888 ft | 411 kts | 310° |
| 2026-05-04 11:34 | 35.57595 | 30.34220 | 33886 ft | 412 kts | 310° |
| 2026-05-04 11:35 | 35.61500 | 30.29058 | 33879 ft | 412 kts | 310° |
| 2026-05-04 11:35 | 35.65382 | 30.23907 | 33881 ft | 412 kts | 310° |
| 2026-05-04 11:36 | 35.69278 | 30.18735 | 33879 ft | 412 kts | 310° |
| 2026-05-04 11:36 | 35.73162 | 30.13569 | 33881 ft | 412 kts | 310° |
| 2026-05-04 11:37 | 35.77030 | 30.08406 | 33868 ft | 412 kts | 310° |
| 2026-05-04 11:37 | 35.80922 | 30.03208 | 33899 ft | 412 kts | 311° |
| 2026-05-04 11:38 | 35.84533 | 29.97698 | 33874 ft | 412 kts | 302° |
| 2026-05-04 11:38 | 35.87613 | 29.91725 | 33862 ft | 414 kts | 302° |
| 2026-05-04 11:39 | 35.90691 | 29.85762 | 33857 ft | 415 kts | 302° |
| 2026-05-04 11:41 | 36.01502 | 29.64693 | 33890 ft | 414 kts | 302° |
| 2026-05-04 11:41 | 36.04586 | 29.58681 | 33893 ft | 414 kts | 302° |
| 2026-05-04 11:42 | 36.07660 | 29.52669 | 33887 ft | 413 kts | 302° |
| 2026-05-04 11:42 | 36.10723 | 29.46656 | 33897 ft | 412 kts | 302° |
| 2026-05-04 11:43 | 36.13755 | 29.40691 | 33891 ft | 411 kts | 302° |
| 2026-05-04 11:43 | 36.16805 | 29.34691 | 33900 ft | 411 kts | 302° |
| 2026-05-04 11:44 | 36.19810 | 29.30129 | 33888 ft | 412 kts | 316° |
| 2026-05-04 11:44 | 36.24193 | 29.25524 | 33908 ft | 413 kts | 319° |
| 2026-05-04 11:45 | 36.28578 | 29.20927 | 33894 ft | 415 kts | 319° |
| 2026-05-04 11:45 | 36.32995 | 29.16280 | 33891 ft | 417 kts | 319° |
| 2026-05-04 11:46 | 36.37442 | 29.11606 | 33891 ft | 418 kts | 319° |
| 2026-05-04 11:46 | 36.41887 | 29.06927 | 33888 ft | 419 kts | 319° |
| 2026-05-04 11:47 | 36.46327 | 29.02239 | 33902 ft | 419 kts | 319° |
| 2026-05-04 11:47 | 36.50769 | 28.97541 | 33900 ft | 419 kts | 319° |
| 2026-05-04 11:48 | 36.55213 | 28.92838 | 33906 ft | 419 kts | 319° |
| 2026-05-04 11:48 | 36.59638 | 28.88139 | 33925 ft | 421 kts | 319° |
| 2026-05-04 11:49 | 36.64110 | 28.83388 | 33918 ft | 422 kts | 319° |
| 2026-05-04 11:49 | 36.68554 | 28.78661 | 33929 ft | 423 kts | 319° |
| 2026-05-04 11:50 | 36.73043 | 28.73892 | 33928 ft | 423 kts | 320° |
| 2026-05-04 11:50 | 36.77541 | 28.69128 | 33940 ft | 424 kts | 320° |